sensor_id;sensor_type;location;lat;lon;timestamp;P1;durP1;ratioP1;P2;durP2;ratioP2
72771;SDS011;60894;42.544;1.516;2022-09-03T00:01:26;10.23;;;4.37;;
72771;SDS011;60894;42.544;1.516;2022-09-03T00:04:02;9.65;;;4.22;;
72771;SDS011;60894;42.544;1.516;2022-09-03T00:06:35;9.85;;;4.30;;
72771;SDS011;60894;42.544;1.516;2022-09-03T00:09:11;10.63;;;4.25;;
72771;SDS011;60894;42.544;1.516;2022-09-03T00:11:44;9.07;;;4.25;;
72771;SDS011;60894;42.544;1.516;2022-09-03T00:14:17;8.13;;;4.10;;
72771;SDS011;60894;42.544;1.516;2022-09-03T00:16:51;10.38;;;4.32;;
72771;SDS011;60894;42.544;1.516;2022-09-03T00:19:23;12.05;;;4.50;;
72771;SDS011;60894;42.544;1.516;2022-09-03T00:21:55;10.43;;;4.55;;
72771;SDS011;60894;42.544;1.516;2022-09-03T00:24:27;9.45;;;4.90;;
72771;SDS011;60894;42.544;1.516;2022-09-03T00:26:59;10.73;;;5.07;;
72771;SDS011;60894;42.544;1.516;2022-09-03T00:29:32;13.57;;;5.40;;
72771;SDS011;60894;42.544;1.516;2022-09-03T00:32:04;8.80;;;4.20;;
72771;SDS011;60894;42.544;1.516;2022-09-03T00:34:37;13.27;;;5.00;;
72771;SDS011;60894;42.544;1.516;2022-09-03T00:37:06;10.85;;;4.38;;
72771;SDS011;60894;42.544;1.516;2022-09-03T00:39:34;10.73;;;4.50;;
72771;SDS011;60894;42.544;1.516;2022-09-03T00:42:06;10.30;;;4.20;;
72771;SDS011;60894;42.544;1.516;2022-09-03T00:45:04;12.60;;;5.38;;
72771;SDS011;60894;42.544;1.516;2022-09-03T00:47:43;12.75;;;4.47;;
72771;SDS011;60894;42.544;1.516;2022-09-03T00:50:20;10.07;;;4.38;;
72771;SDS011;60894;42.544;1.516;2022-09-03T00:52:56;10.50;;;4.40;;
72771;SDS011;60894;42.544;1.516;2022-09-03T00:55:32;10.90;;;4.25;;
72771;SDS011;60894;42.544;1.516;2022-09-03T00:58:13;10.20;;;4.60;;
72771;SDS011;60894;42.544;1.516;2022-09-03T01:00:52;11.85;;;4.22;;
72771;SDS011;60894;42.544;1.516;2022-09-03T01:03:21;8.55;;;4.00;;
72771;SDS011;60894;42.544;1.516;2022-09-03T01:06:04;11.97;;;5.50;;
72771;SDS011;60894;42.544;1.516;2022-09-03T01:08:44;11.85;;;4.82;;
72771;SDS011;60894;42.544;1.516;2022-09-03T01:11:25;14.93;;;4.50;;
72771;SDS011;60894;42.544;1.516;2022-09-03T01:14:06;11.57;;;5.15;;
72771;SDS011;60894;42.544;1.516;2022-09-03T01:16:39;11.15;;;4.30;;
72771;SDS011;60894;42.544;1.516;2022-09-03T01:19:23;12.47;;;4.50;;
72771;SDS011;60894;42.544;1.516;2022-09-03T01:22:05;11.50;;;4.78;;
72771;SDS011;60894;42.544;1.516;2022-09-03T01:24:59;11.57;;;4.82;;
72771;SDS011;60894;42.544;1.516;2022-09-03T01:27:40;10.18;;;4.75;;
72771;SDS011;60894;42.544;1.516;2022-09-03T01:30:16;10.35;;;4.95;;
72771;SDS011;60894;42.544;1.516;2022-09-03T01:32:47;12.40;;;4.30;;
72771;SDS011;60894;42.544;1.516;2022-09-03T01:35:26;9.13;;;4.32;;
72771;SDS011;60894;42.544;1.516;2022-09-03T01:38:06;10.57;;;4.40;;
72771;SDS011;60894;42.544;1.516;2022-09-03T01:40:41;9.55;;;4.40;;
72771;SDS011;60894;42.544;1.516;2022-09-03T01:43:24;11.68;;;4.72;;
72771;SDS011;60894;42.544;1.516;2022-09-03T01:46:02;10.43;;;4.57;;
72771;SDS011;60894;42.544;1.516;2022-09-03T01:48:41;11.50;;;4.40;;
72771;SDS011;60894;42.544;1.516;2022-09-03T01:51:18;11.25;;;4.72;;
72771;SDS011;60894;42.544;1.516;2022-09-03T01:54:01;12.48;;;4.75;;
72771;SDS011;60894;42.544;1.516;2022-09-03T01:56:44;11.32;;;4.32;;
72771;SDS011;60894;42.544;1.516;2022-09-03T01:59:31;9.30;;;4.30;;
72771;SDS011;60894;42.544;1.516;2022-09-03T02:02:04;9.48;;;4.05;;
72771;SDS011;60894;42.544;1.516;2022-09-03T02:04:36;11.00;;;4.45;;
72771;SDS011;60894;42.544;1.516;2022-09-03T02:07:03;13.57;;;5.53;;
72771;SDS011;60894;42.544;1.516;2022-09-03T02:09:31;9.88;;;4.20;;
72771;SDS011;60894;42.544;1.516;2022-09-03T02:11:59;10.77;;;3.70;;
72771;SDS011;60894;42.544;1.516;2022-09-03T02:14:30;10.48;;;3.67;;
72771;SDS011;60894;42.544;1.516;2022-09-03T02:16:58;9.50;;;4.13;;
72771;SDS011;60894;42.544;1.516;2022-09-03T02:19:27;8.70;;;3.80;;
72771;SDS011;60894;42.544;1.516;2022-09-03T02:21:56;13.43;;;4.65;;
72771;SDS011;60894;42.544;1.516;2022-09-03T02:24:24;7.90;;;4.10;;
72771;SDS011;60894;42.544;1.516;2022-09-03T02:26:53;11.13;;;4.35;;
72771;SDS011;60894;42.544;1.516;2022-09-03T02:29:21;9.50;;;3.90;;
72771;SDS011;60894;42.544;1.516;2022-09-03T02:31:48;10.95;;;4.68;;
72771;SDS011;60894;42.544;1.516;2022-09-03T02:34:15;9.95;;;3.90;;
72771;SDS011;60894;42.544;1.516;2022-09-03T02:36:44;9.00;;;3.77;;
72771;SDS011;60894;42.544;1.516;2022-09-03T02:39:13;10.05;;;3.72;;
72771;SDS011;60894;42.544;1.516;2022-09-03T02:41:41;9.98;;;3.92;;
72771;SDS011;60894;42.544;1.516;2022-09-03T02:44:09;9.07;;;3.60;;
72771;SDS011;60894;42.544;1.516;2022-09-03T02:46:42;9.80;;;4.07;;
72771;SDS011;60894;42.544;1.516;2022-09-03T02:49:12;9.73;;;4.23;;
72771;SDS011;60894;42.544;1.516;2022-09-03T02:51:40;10.77;;;5.18;;
72771;SDS011;60894;42.544;1.516;2022-09-03T02:54:09;9.52;;;4.50;;
72771;SDS011;60894;42.544;1.516;2022-09-03T02:56:38;11.02;;;4.30;;
72771;SDS011;60894;42.544;1.516;2022-09-03T02:59:06;11.13;;;4.15;;
72771;SDS011;60894;42.544;1.516;2022-09-03T03:01:34;8.67;;;3.77;;
72771;SDS011;60894;42.544;1.516;2022-09-03T03:04:02;10.23;;;4.38;;
72771;SDS011;60894;42.544;1.516;2022-09-03T03:06:29;14.88;;;4.60;;
72771;SDS011;60894;42.544;1.516;2022-09-03T03:08:57;10.20;;;4.57;;
72771;SDS011;60894;42.544;1.516;2022-09-03T03:11:25;10.77;;;5.05;;
72771;SDS011;60894;42.544;1.516;2022-09-03T03:13:53;8.77;;;4.20;;
72771;SDS011;60894;42.544;1.516;2022-09-03T03:16:20;9.80;;;4.22;;
72771;SDS011;60894;42.544;1.516;2022-09-03T03:18:48;11.80;;;4.25;;
72771;SDS011;60894;42.544;1.516;2022-09-03T03:21:15;10.18;;;4.18;;
72771;SDS011;60894;42.544;1.516;2022-09-03T03:23:43;11.85;;;4.20;;
72771;SDS011;60894;42.544;1.516;2022-09-03T03:26:12;9.93;;;4.50;;
72771;SDS011;60894;42.544;1.516;2022-09-03T03:28:43;10.57;;;4.57;;
72771;SDS011;60894;42.544;1.516;2022-09-03T03:31:13;11.73;;;4.93;;
72771;SDS011;60894;42.544;1.516;2022-09-03T03:33:41;9.00;;;4.43;;
72771;SDS011;60894;42.544;1.516;2022-09-03T03:36:09;9.90;;;4.40;;
72771;SDS011;60894;42.544;1.516;2022-09-03T03:38:38;10.87;;;4.40;;
72771;SDS011;60894;42.544;1.516;2022-09-03T03:41:06;8.80;;;4.22;;
72771;SDS011;60894;42.544;1.516;2022-09-03T03:43:34;12.45;;;4.90;;
72771;SDS011;60894;42.544;1.516;2022-09-03T03:46:03;10.77;;;4.88;;
72771;SDS011;60894;42.544;1.516;2022-09-03T03:48:30;10.18;;;4.70;;
72771;SDS011;60894;42.544;1.516;2022-09-03T03:50:59;10.50;;;4.70;;
72771;SDS011;60894;42.544;1.516;2022-09-03T03:53:28;9.25;;;4.13;;
72771;SDS011;60894;42.544;1.516;2022-09-03T03:55:55;10.82;;;4.93;;
72771;SDS011;60894;42.544;1.516;2022-09-03T03:58:23;11.27;;;4.55;;
72771;SDS011;60894;42.544;1.516;2022-09-03T04:00:51;11.57;;;4.13;;
72771;SDS011;60894;42.544;1.516;2022-09-03T04:03:19;10.27;;;4.80;;
72771;SDS011;60894;42.544;1.516;2022-09-03T04:05:53;9.70;;;4.40;;
72771;SDS011;60894;42.544;1.516;2022-09-03T04:08:20;11.20;;;4.40;;
72771;SDS011;60894;42.544;1.516;2022-09-03T04:10:47;11.40;;;4.50;;
72771;SDS011;60894;42.544;1.516;2022-09-03T04:13:15;11.32;;;4.60;;
72771;SDS011;60894;42.544;1.516;2022-09-03T04:15:42;10.63;;;5.00;;
72771;SDS011;60894;42.544;1.516;2022-09-03T04:18:09;11.75;;;4.95;;
72771;SDS011;60894;42.544;1.516;2022-09-03T04:20:37;10.75;;;4.70;;
72771;SDS011;60894;42.544;1.516;2022-09-03T04:23:04;8.75;;;4.43;;
72771;SDS011;60894;42.544;1.516;2022-09-03T04:25:31;10.70;;;5.00;;
72771;SDS011;60894;42.544;1.516;2022-09-03T04:27:58;9.87;;;4.40;;
72771;SDS011;60894;42.544;1.516;2022-09-03T04:30:27;9.35;;;4.65;;
72771;SDS011;60894;42.544;1.516;2022-09-03T04:32:54;9.95;;;5.15;;
72771;SDS011;60894;42.544;1.516;2022-09-03T04:35:22;10.07;;;4.47;;
72771;SDS011;60894;42.544;1.516;2022-09-03T04:37:52;11.63;;;4.60;;
72771;SDS011;60894;42.544;1.516;2022-09-03T04:40:19;8.90;;;4.33;;
72771;SDS011;60894;42.544;1.516;2022-09-03T04:42:46;7.82;;;4.20;;
72771;SDS011;60894;42.544;1.516;2022-09-03T04:45:13;11.23;;;3.97;;
72771;SDS011;60894;42.544;1.516;2022-09-03T04:47:43;11.23;;;4.50;;
72771;SDS011;60894;42.544;1.516;2022-09-03T04:50:11;10.15;;;4.45;;
72771;SDS011;60894;42.544;1.516;2022-09-03T04:52:38;10.07;;;3.97;;
72771;SDS011;60894;42.544;1.516;2022-09-03T04:55:07;10.00;;;4.25;;
72771;SDS011;60894;42.544;1.516;2022-09-03T04:57:36;9.02;;;4.15;;
72771;SDS011;60894;42.544;1.516;2022-09-03T05:00:03;8.70;;;3.60;;
72771;SDS011;60894;42.544;1.516;2022-09-03T05:02:34;9.55;;;4.45;;
72771;SDS011;60894;42.544;1.516;2022-09-03T05:05:02;9.93;;;3.80;;
72771;SDS011;60894;42.544;1.516;2022-09-03T05:07:29;10.05;;;4.30;;
72771;SDS011;60894;42.544;1.516;2022-09-03T05:10:03;9.32;;;4.70;;
72771;SDS011;60894;42.544;1.516;2022-09-03T05:12:32;11.43;;;4.63;;
72771;SDS011;60894;42.544;1.516;2022-09-03T05:15:00;9.63;;;4.40;;
72771;SDS011;60894;42.544;1.516;2022-09-03T05:17:28;11.57;;;4.80;;
72771;SDS011;60894;42.544;1.516;2022-09-03T05:19:55;10.55;;;4.05;;
72771;SDS011;60894;42.544;1.516;2022-09-03T05:22:22;12.20;;;4.70;;
72771;SDS011;60894;42.544;1.516;2022-09-03T05:24:49;7.60;;;3.72;;
72771;SDS011;60894;42.544;1.516;2022-09-03T05:27:16;10.68;;;4.53;;
72771;SDS011;60894;42.544;1.516;2022-09-03T05:29:44;10.33;;;4.40;;
72771;SDS011;60894;42.544;1.516;2022-09-03T05:32:11;12.68;;;4.63;;
72771;SDS011;60894;42.544;1.516;2022-09-03T05:34:40;9.38;;;4.60;;
72771;SDS011;60894;42.544;1.516;2022-09-03T05:37:07;11.45;;;6.22;;
72771;SDS011;60894;42.544;1.516;2022-09-03T05:39:34;12.82;;;7.70;;
72771;SDS011;60894;42.544;1.516;2022-09-03T05:42:01;10.83;;;5.43;;
72771;SDS011;60894;42.544;1.516;2022-09-03T05:44:28;12.73;;;5.25;;
72771;SDS011;60894;42.544;1.516;2022-09-03T05:46:57;11.48;;;4.82;;
72771;SDS011;60894;42.544;1.516;2022-09-03T05:49:24;11.20;;;5.80;;
72771;SDS011;60894;42.544;1.516;2022-09-03T05:51:51;10.20;;;4.75;;
72771;SDS011;60894;42.544;1.516;2022-09-03T05:54:18;9.07;;;4.67;;
72771;SDS011;60894;42.544;1.516;2022-09-03T05:56:45;10.90;;;5.68;;
72771;SDS011;60894;42.544;1.516;2022-09-03T05:59:12;9.07;;;4.40;;
72771;SDS011;60894;42.544;1.516;2022-09-03T06:01:39;10.32;;;5.00;;
72771;SDS011;60894;42.544;1.516;2022-09-03T06:04:09;10.65;;;4.80;;
72771;SDS011;60894;42.544;1.516;2022-09-03T06:06:38;8.23;;;4.00;;
72771;SDS011;60894;42.544;1.516;2022-09-03T06:09:07;9.48;;;5.15;;
72771;SDS011;60894;42.544;1.516;2022-09-03T06:11:36;10.52;;;5.75;;
72771;SDS011;60894;42.544;1.516;2022-09-03T06:14:04;10.80;;;5.10;;
72771;SDS011;60894;42.544;1.516;2022-09-03T06:16:33;9.88;;;5.03;;
72771;SDS011;60894;42.544;1.516;2022-09-03T06:19:01;11.73;;;5.13;;
72771;SDS011;60894;42.544;1.516;2022-09-03T06:21:31;9.48;;;4.68;;
72771;SDS011;60894;42.544;1.516;2022-09-03T06:23:59;9.77;;;5.28;;
72771;SDS011;60894;42.544;1.516;2022-09-03T06:26:26;13.50;;;5.60;;
72771;SDS011;60894;42.544;1.516;2022-09-03T06:28:54;8.98;;;4.80;;
72771;SDS011;60894;42.544;1.516;2022-09-03T06:31:21;11.23;;;5.17;;
72771;SDS011;60894;42.544;1.516;2022-09-03T06:33:48;13.88;;;5.13;;
72771;SDS011;60894;42.544;1.516;2022-09-03T06:36:16;10.73;;;5.00;;
72771;SDS011;60894;42.544;1.516;2022-09-03T06:38:45;13.60;;;5.70;;
72771;SDS011;60894;42.544;1.516;2022-09-03T06:41:13;9.73;;;4.90;;
72771;SDS011;60894;42.544;1.516;2022-09-03T06:43:45;12.00;;;5.93;;
72771;SDS011;60894;42.544;1.516;2022-09-03T06:46:13;13.73;;;6.13;;
72771;SDS011;60894;42.544;1.516;2022-09-03T06:48:42;11.75;;;5.40;;
72771;SDS011;60894;42.544;1.516;2022-09-03T06:51:10;11.13;;;5.65;;
72771;SDS011;60894;42.544;1.516;2022-09-03T06:53:38;10.15;;;4.95;;
72771;SDS011;60894;42.544;1.516;2022-09-03T06:56:09;10.87;;;4.70;;
72771;SDS011;60894;42.544;1.516;2022-09-03T06:58:37;11.98;;;5.20;;
72771;SDS011;60894;42.544;1.516;2022-09-03T07:01:07;11.20;;;4.72;;
72771;SDS011;60894;42.544;1.516;2022-09-03T07:03:36;13.55;;;5.53;;
72771;SDS011;60894;42.544;1.516;2022-09-03T07:06:05;11.63;;;5.00;;
72771;SDS011;60894;42.544;1.516;2022-09-03T07:08:33;11.03;;;5.23;;
72771;SDS011;60894;42.544;1.516;2022-09-03T07:11:01;10.88;;;5.13;;
72771;SDS011;60894;42.544;1.516;2022-09-03T07:13:31;11.32;;;5.00;;
72771;SDS011;60894;42.544;1.516;2022-09-03T07:16:00;11.18;;;5.05;;
72771;SDS011;60894;42.544;1.516;2022-09-03T07:18:28;9.82;;;4.70;;
72771;SDS011;60894;42.544;1.516;2022-09-03T07:20:58;11.03;;;5.60;;
72771;SDS011;60894;42.544;1.516;2022-09-03T07:23:26;10.50;;;4.50;;
72771;SDS011;60894;42.544;1.516;2022-09-03T07:25:54;8.18;;;4.40;;
72771;SDS011;60894;42.544;1.516;2022-09-03T07:28:21;9.90;;;4.65;;
72771;SDS011;60894;42.544;1.516;2022-09-03T07:30:51;9.52;;;4.78;;
72771;SDS011;60894;42.544;1.516;2022-09-03T07:33:18;11.23;;;5.47;;
72771;SDS011;60894;42.544;1.516;2022-09-03T07:35:46;9.98;;;4.70;;
72771;SDS011;60894;42.544;1.516;2022-09-03T07:38:15;11.07;;;5.00;;
72771;SDS011;60894;42.544;1.516;2022-09-03T07:40:44;8.85;;;4.60;;
72771;SDS011;60894;42.544;1.516;2022-09-03T07:43:11;10.50;;;5.30;;
72771;SDS011;60894;42.544;1.516;2022-09-03T07:45:38;10.03;;;4.90;;
72771;SDS011;60894;42.544;1.516;2022-09-03T07:48:06;11.25;;;5.13;;
72771;SDS011;60894;42.544;1.516;2022-09-03T07:50:33;9.43;;;4.65;;
72771;SDS011;60894;42.544;1.516;2022-09-03T07:53:03;10.25;;;4.40;;
72771;SDS011;60894;42.544;1.516;2022-09-03T07:55:30;9.48;;;4.35;;
72771;SDS011;60894;42.544;1.516;2022-09-03T07:57:57;9.40;;;4.70;;
72771;SDS011;60894;42.544;1.516;2022-09-03T08:00:24;9.90;;;4.38;;
72771;SDS011;60894;42.544;1.516;2022-09-03T08:02:57;11.25;;;4.47;;
72771;SDS011;60894;42.544;1.516;2022-09-03T08:05:32;13.82;;;5.10;;
72771;SDS011;60894;42.544;1.516;2022-09-03T08:07:59;13.75;;;5.75;;
72771;SDS011;60894;42.544;1.516;2022-09-03T08:10:26;11.90;;;5.33;;
72771;SDS011;60894;42.544;1.516;2022-09-03T08:12:55;9.23;;;4.15;;
72771;SDS011;60894;42.544;1.516;2022-09-03T08:15:22;9.93;;;4.03;;
72771;SDS011;60894;42.544;1.516;2022-09-03T08:17:50;10.05;;;3.90;;
72771;SDS011;60894;42.544;1.516;2022-09-03T08:20:17;7.75;;;3.95;;
72771;SDS011;60894;42.544;1.516;2022-09-03T08:22:46;8.63;;;3.80;;
72771;SDS011;60894;42.544;1.516;2022-09-03T08:25:13;9.57;;;4.10;;
72771;SDS011;60894;42.544;1.516;2022-09-03T08:27:40;10.70;;;4.75;;
72771;SDS011;60894;42.544;1.516;2022-09-03T08:30:08;9.45;;;4.50;;
72771;SDS011;60894;42.544;1.516;2022-09-03T08:32:36;11.00;;;4.55;;
72771;SDS011;60894;42.544;1.516;2022-09-03T08:35:03;10.10;;;4.17;;
72771;SDS011;60894;42.544;1.516;2022-09-03T08:37:31;10.30;;;4.22;;
72771;SDS011;60894;42.544;1.516;2022-09-03T08:40:00;8.05;;;3.90;;
72771;SDS011;60894;42.544;1.516;2022-09-03T08:42:31;11.00;;;4.68;;
72771;SDS011;60894;42.544;1.516;2022-09-03T08:45:12;8.75;;;3.58;;
72771;SDS011;60894;42.544;1.516;2022-09-03T08:47:43;8.50;;;4.17;;
72771;SDS011;60894;42.544;1.516;2022-09-03T08:50:15;9.63;;;3.90;;
72771;SDS011;60894;42.544;1.516;2022-09-03T08:52:49;7.63;;;3.95;;
72771;SDS011;60894;42.544;1.516;2022-09-03T08:55:20;8.57;;;3.92;;
72771;SDS011;60894;42.544;1.516;2022-09-03T08:57:52;9.50;;;3.63;;
72771;SDS011;60894;42.544;1.516;2022-09-03T09:00:22;8.03;;;3.77;;
72771;SDS011;60894;42.544;1.516;2022-09-03T09:03:03;8.90;;;4.47;;
72771;SDS011;60894;42.544;1.516;2022-09-03T09:05:48;8.95;;;4.32;;
72771;SDS011;60894;42.544;1.516;2022-09-03T09:08:23;9.00;;;3.40;;
72771;SDS011;60894;42.544;1.516;2022-09-03T09:10:57;7.75;;;3.33;;
72771;SDS011;60894;42.544;1.516;2022-09-03T09:13:31;9.27;;;3.60;;
72771;SDS011;60894;42.544;1.516;2022-09-03T09:16:05;7.10;;;3.45;;
72771;SDS011;60894;42.544;1.516;2022-09-03T09:18:41;10.07;;;4.43;;
72771;SDS011;60894;42.544;1.516;2022-09-03T09:21:19;8.18;;;3.78;;
72771;SDS011;60894;42.544;1.516;2022-09-03T09:23:52;8.75;;;3.88;;
72771;SDS011;60894;42.544;1.516;2022-09-03T09:26:24;10.27;;;4.47;;
72771;SDS011;60894;42.544;1.516;2022-09-03T09:28:52;17.27;;;5.75;;
72771;SDS011;60894;42.544;1.516;2022-09-03T09:31:23;9.02;;;4.10;;
72771;SDS011;60894;42.544;1.516;2022-09-03T09:33:52;7.25;;;3.15;;
72771;SDS011;60894;42.544;1.516;2022-09-03T09:36:22;8.98;;;3.38;;
72771;SDS011;60894;42.544;1.516;2022-09-03T09:38:56;7.63;;;3.90;;
72771;SDS011;60894;42.544;1.516;2022-09-03T09:41:36;9.07;;;3.90;;
72771;SDS011;60894;42.544;1.516;2022-09-03T09:44:03;7.25;;;3.30;;
72771;SDS011;60894;42.544;1.516;2022-09-03T09:46:31;8.38;;;3.58;;
72771;SDS011;60894;42.544;1.516;2022-09-03T09:49:02;8.57;;;3.65;;
72771;SDS011;60894;42.544;1.516;2022-09-03T09:51:29;9.27;;;4.00;;
72771;SDS011;60894;42.544;1.516;2022-09-03T09:54:00;8.85;;;3.50;;
72771;SDS011;60894;42.544;1.516;2022-09-03T09:56:28;9.25;;;4.43;;
72771;SDS011;60894;42.544;1.516;2022-09-03T09:59:03;8.48;;;3.80;;
72771;SDS011;60894;42.544;1.516;2022-09-03T10:01:31;8.35;;;3.83;;
72771;SDS011;60894;42.544;1.516;2022-09-03T10:03:59;9.07;;;3.70;;
72771;SDS011;60894;42.544;1.516;2022-09-03T10:06:34;11.35;;;4.90;;
72771;SDS011;60894;42.544;1.516;2022-09-03T10:09:22;10.30;;;3.42;;
72771;SDS011;60894;42.544;1.516;2022-09-03T10:11:51;7.80;;;3.70;;
72771;SDS011;60894;42.544;1.516;2022-09-03T10:14:33;8.63;;;4.00;;
72771;SDS011;60894;42.544;1.516;2022-09-03T10:17:05;7.77;;;3.30;;
72771;SDS011;60894;42.544;1.516;2022-09-03T10:19:39;8.90;;;3.45;;
72771;SDS011;60894;42.544;1.516;2022-09-03T10:22:31;6.68;;;2.90;;
72771;SDS011;60894;42.544;1.516;2022-09-03T10:25:07;10.45;;;3.20;;
72771;SDS011;60894;42.544;1.516;2022-09-03T10:27:35;8.70;;;3.30;;
72771;SDS011;60894;42.544;1.516;2022-09-03T10:30:04;8.77;;;3.13;;
72771;SDS011;60894;42.544;1.516;2022-09-03T10:32:34;8.13;;;3.25;;
72771;SDS011;60894;42.544;1.516;2022-09-03T10:35:09;8.85;;;3.17;;
72771;SDS011;60894;42.544;1.516;2022-09-03T10:37:43;7.53;;;2.88;;
72771;SDS011;60894;42.544;1.516;2022-09-03T10:40:21;9.52;;;3.00;;
72771;SDS011;60894;42.544;1.516;2022-09-03T10:43:08;7.33;;;2.90;;
72771;SDS011;60894;42.544;1.516;2022-09-03T10:45:47;10.15;;;2.80;;
72771;SDS011;60894;42.544;1.516;2022-09-03T10:48:29;6.35;;;3.10;;
72771;SDS011;60894;42.544;1.516;2022-09-03T10:51:05;9.10;;;3.00;;
72771;SDS011;60894;42.544;1.516;2022-09-03T10:53:48;7.80;;;2.92;;
72771;SDS011;60894;42.544;1.516;2022-09-03T10:56:27;9.63;;;2.97;;
72771;SDS011;60894;42.544;1.516;2022-09-03T10:59:02;9.55;;;3.22;;
72771;SDS011;60894;42.544;1.516;2022-09-03T11:01:39;8.93;;;3.28;;
72771;SDS011;60894;42.544;1.516;2022-09-03T11:04:19;8.25;;;2.85;;
72771;SDS011;60894;42.544;1.516;2022-09-03T11:06:53;6.70;;;3.10;;
72771;SDS011;60894;42.544;1.516;2022-09-03T11:09:23;10.50;;;4.63;;
72771;SDS011;60894;42.544;1.516;2022-09-03T11:11:56;11.20;;;4.18;;
72771;SDS011;60894;42.544;1.516;2022-09-03T11:14:30;10.77;;;2.90;;
72771;SDS011;60894;42.544;1.516;2022-09-03T11:17:02;10.27;;;3.20;;
72771;SDS011;60894;42.544;1.516;2022-09-03T11:19:35;7.43;;;2.65;;
72771;SDS011;60894;42.544;1.516;2022-09-03T11:22:06;9.57;;;3.03;;
72771;SDS011;60894;42.544;1.516;2022-09-03T11:24:34;7.53;;;3.20;;
72771;SDS011;60894;42.544;1.516;2022-09-03T11:29:58;7.30;;;2.58;;
72771;SDS011;60894;42.544;1.516;2022-09-03T11:32:39;7.82;;;2.90;;
72771;SDS011;60894;42.544;1.516;2022-09-03T11:35:15;8.20;;;2.80;;
72771;SDS011;60894;42.544;1.516;2022-09-03T11:37:48;6.75;;;2.80;;
72771;SDS011;60894;42.544;1.516;2022-09-03T11:40:19;8.13;;;3.25;;
72771;SDS011;60894;42.544;1.516;2022-09-03T11:43:04;10.10;;;3.40;;
72771;SDS011;60894;42.544;1.516;2022-09-03T11:45:33;5.97;;;2.70;;
72771;SDS011;60894;42.544;1.516;2022-09-03T11:48:10;9.77;;;2.60;;
72771;SDS011;60894;42.544;1.516;2022-09-03T11:50:50;7.53;;;2.83;;
72771;SDS011;60894;42.544;1.516;2022-09-03T11:53:22;8.35;;;2.78;;
72771;SDS011;60894;42.544;1.516;2022-09-03T11:55:52;8.77;;;2.75;;
72771;SDS011;60894;42.544;1.516;2022-09-03T11:58:22;6.65;;;2.88;;
72771;SDS011;60894;42.544;1.516;2022-09-03T12:00:52;8.40;;;2.57;;
72771;SDS011;60894;42.544;1.516;2022-09-03T12:03:24;7.25;;;2.65;;
72771;SDS011;60894;42.544;1.516;2022-09-03T12:06:04;6.85;;;2.50;;
72771;SDS011;60894;42.544;1.516;2022-09-03T12:11:44;8.20;;;2.72;;
72771;SDS011;60894;42.544;1.516;2022-09-03T12:14:21;7.13;;;2.37;;
72771;SDS011;60894;42.544;1.516;2022-09-03T12:16:57;9.13;;;2.70;;
72771;SDS011;60894;42.544;1.516;2022-09-03T12:19:34;6.85;;;2.55;;
72771;SDS011;60894;42.544;1.516;2022-09-03T12:22:05;9.65;;;2.80;;
72771;SDS011;60894;42.544;1.516;2022-09-03T12:24:32;8.60;;;2.80;;
72771;SDS011;60894;42.544;1.516;2022-09-03T12:27:01;9.43;;;3.37;;
72771;SDS011;60894;42.544;1.516;2022-09-03T12:29:30;8.32;;;2.70;;
72771;SDS011;60894;42.544;1.516;2022-09-03T12:32:05;8.32;;;2.72;;
72771;SDS011;60894;42.544;1.516;2022-09-03T12:34:35;7.20;;;2.60;;
72771;SDS011;60894;42.544;1.516;2022-09-03T12:37:02;6.80;;;2.60;;
72771;SDS011;60894;42.544;1.516;2022-09-03T12:39:48;7.43;;;2.53;;
72771;SDS011;60894;42.544;1.516;2022-09-03T12:42:17;6.50;;;2.90;;
72771;SDS011;60894;42.544;1.516;2022-09-03T12:44:49;7.75;;;2.72;;
72771;SDS011;60894;42.544;1.516;2022-09-03T12:47:16;6.90;;;2.05;;
72771;SDS011;60894;42.544;1.516;2022-09-03T12:49:47;6.60;;;2.10;;
72771;SDS011;60894;42.544;1.516;2022-09-03T12:52:16;7.07;;;2.50;;
72771;SDS011;60894;42.544;1.516;2022-09-03T12:54:47;6.05;;;2.50;;
72771;SDS011;60894;42.544;1.516;2022-09-03T12:57:20;7.85;;;2.42;;
72771;SDS011;60894;42.544;1.516;2022-09-03T12:59:49;4.60;;;2.20;;
72771;SDS011;60894;42.544;1.516;2022-09-03T13:02:23;6.18;;;2.55;;
72771;SDS011;60894;42.544;1.516;2022-09-03T13:04:55;6.93;;;2.30;;
72771;SDS011;60894;42.544;1.516;2022-09-03T13:07:26;7.07;;;2.20;;
72771;SDS011;60894;42.544;1.516;2022-09-03T13:10:00;4.90;;;1.80;;
72771;SDS011;60894;42.544;1.516;2022-09-03T13:12:31;6.60;;;2.08;;
72771;SDS011;60894;42.544;1.516;2022-09-03T13:15:04;4.70;;;2.10;;
72771;SDS011;60894;42.544;1.516;2022-09-03T13:17:38;5.20;;;2.20;;
72771;SDS011;60894;42.544;1.516;2022-09-03T13:20:22;5.57;;;2.00;;
72771;SDS011;60894;42.544;1.516;2022-09-03T13:22:59;4.88;;;1.90;;
72771;SDS011;60894;42.544;1.516;2022-09-03T13:25:36;5.68;;;1.92;;
72771;SDS011;60894;42.544;1.516;2022-09-03T13:28:14;5.25;;;1.83;;
72771;SDS011;60894;42.544;1.516;2022-09-03T13:30:52;6.47;;;1.93;;
72771;SDS011;60894;42.544;1.516;2022-09-03T13:33:24;6.60;;;2.17;;
72771;SDS011;60894;42.544;1.516;2022-09-03T13:36:00;5.93;;;2.30;;
72771;SDS011;60894;42.544;1.516;2022-09-03T13:38:30;5.28;;;2.08;;
72771;SDS011;60894;42.544;1.516;2022-09-03T13:41:06;6.18;;;2.20;;
72771;SDS011;60894;42.544;1.516;2022-09-03T13:43:44;6.03;;;2.23;;
72771;SDS011;60894;42.544;1.516;2022-09-03T13:46:18;5.18;;;2.05;;
72771;SDS011;60894;42.544;1.516;2022-09-03T13:48:55;6.85;;;2.13;;
72771;SDS011;60894;42.544;1.516;2022-09-03T13:51:46;5.43;;;2.00;;
72771;SDS011;60894;42.544;1.516;2022-09-03T13:54:17;4.07;;;2.08;;
72771;SDS011;60894;42.544;1.516;2022-09-03T13:56:52;6.27;;;2.40;;
72771;SDS011;60894;42.544;1.516;2022-09-03T13:59:26;5.80;;;2.15;;
72771;SDS011;60894;42.544;1.516;2022-09-03T14:05:04;4.78;;;2.05;;
72771;SDS011;60894;42.544;1.516;2022-09-03T14:07:43;6.55;;;2.10;;
72771;SDS011;60894;42.544;1.516;2022-09-03T14:10:21;7.27;;;2.47;;
72771;SDS011;60894;42.544;1.516;2022-09-03T14:13:02;6.45;;;2.08;;
72771;SDS011;60894;42.544;1.516;2022-09-03T14:15:39;5.32;;;2.35;;
72771;SDS011;60894;42.544;1.516;2022-09-03T14:18:13;6.20;;;2.40;;
72771;SDS011;60894;42.544;1.516;2022-09-03T14:20:52;6.55;;;2.42;;
72771;SDS011;60894;42.544;1.516;2022-09-03T14:23:27;7.10;;;1.97;;
72771;SDS011;60894;42.544;1.516;2022-09-03T14:26:02;6.43;;;2.40;;
72771;SDS011;60894;42.544;1.516;2022-09-03T14:28:33;6.78;;;2.42;;
72771;SDS011;60894;42.544;1.516;2022-09-03T14:31:05;4.50;;;1.77;;
72771;SDS011;60894;42.544;1.516;2022-09-03T14:33:40;5.70;;;2.05;;
72771;SDS011;60894;42.544;1.516;2022-09-03T14:36:15;4.27;;;2.10;;
72771;SDS011;60894;42.544;1.516;2022-09-03T14:41:56;12.15;;;4.07;;
72771;SDS011;60894;42.544;1.516;2022-09-03T14:44:41;5.57;;;1.85;;
72771;SDS011;60894;42.544;1.516;2022-09-03T14:47:22;7.75;;;2.13;;
72771;SDS011;60894;42.544;1.516;2022-09-03T14:50:07;5.30;;;2.00;;
72771;SDS011;60894;42.544;1.516;2022-09-03T14:52:56;6.60;;;1.80;;
72771;SDS011;60894;42.544;1.516;2022-09-03T14:55:41;6.25;;;2.30;;
72771;SDS011;60894;42.544;1.516;2022-09-03T14:58:29;5.90;;;2.38;;
72771;SDS011;60894;42.544;1.516;2022-09-03T15:01:09;6.95;;;2.60;;
72771;SDS011;60894;42.544;1.516;2022-09-03T15:03:45;6.27;;;2.27;;
72771;SDS011;60894;42.544;1.516;2022-09-03T15:06:38;8.93;;;3.85;;
72771;SDS011;60894;42.544;1.516;2022-09-03T15:09:21;5.07;;;2.22;;
72771;SDS011;60894;42.544;1.516;2022-09-03T15:11:56;5.95;;;2.65;;
72771;SDS011;60894;42.544;1.516;2022-09-03T15:14:29;13.25;;;3.22;;
72771;SDS011;60894;42.544;1.516;2022-09-03T15:17:12;5.90;;;2.30;;
72771;SDS011;60894;42.544;1.516;2022-09-03T15:19:55;7.53;;;2.15;;
72771;SDS011;60894;42.544;1.516;2022-09-03T15:22:40;12.52;;;3.33;;
72771;SDS011;60894;42.544;1.516;2022-09-03T15:25:29;5.78;;;2.10;;